sensor_id;sensor_type;location;lat;lon;timestamp;P1;durP1;ratioP1;P2;durP2;ratioP2
71462;SDS011;59266;52.608;13.260;2023-07-29T00:01:55;7.38;;;3.53;;
71462;SDS011;59266;52.608;13.260;2023-07-29T00:04:22;9.40;;;3.50;;
71462;SDS011;59266;52.608;13.260;2023-07-29T00:06:49;13.52;;;4.20;;
71462;SDS011;59266;52.608;13.260;2023-07-29T00:09:16;9.30;;;4.07;;
71462;SDS011;59266;52.608;13.260;2023-07-29T00:11:42;10.70;;;4.07;;
71462;SDS011;59266;52.608;13.260;2023-07-29T00:14:09;8.98;;;3.40;;
71462;SDS011;59266;52.608;13.260;2023-07-29T00:16:35;9.75;;;3.75;;
71462;SDS011;59266;52.608;13.260;2023-07-29T00:19:02;9.73;;;3.80;;
71462;SDS011;59266;52.608;13.260;2023-07-29T00:21:31;11.07;;;3.75;;
71462;SDS011;59266;52.608;13.260;2023-07-29T00:23:58;8.75;;;3.60;;
71462;SDS011;59266;52.608;13.260;2023-07-29T00:26:27;7.72;;;3.65;;
71462;SDS011;59266;52.608;13.260;2023-07-29T00:28:55;11.63;;;3.67;;
71462;SDS011;59266;52.608;13.260;2023-07-29T00:31:22;10.48;;;3.50;;
71462;SDS011;59266;52.608;13.260;2023-07-29T00:33:50;7.45;;;3.33;;
71462;SDS011;59266;52.608;13.260;2023-07-29T00:36:18;14.73;;;4.10;;
71462;SDS011;59266;52.608;13.260;2023-07-29T00:38:46;8.35;;;3.60;;
71462;SDS011;59266;52.608;13.260;2023-07-29T00:41:12;10.07;;;4.03;;
71462;SDS011;59266;52.608;13.260;2023-07-29T00:43:42;10.05;;;3.50;;
71462;SDS011;59266;52.608;13.260;2023-07-29T00:46:09;9.65;;;3.97;;
71462;SDS011;59266;52.608;13.260;2023-07-29T00:48:36;12.63;;;3.97;;
71462;SDS011;59266;52.608;13.260;2023-07-29T00:51:03;8.10;;;3.95;;
71462;SDS011;59266;52.608;13.260;2023-07-29T00:53:30;9.77;;;3.45;;
71462;SDS011;59266;52.608;13.260;2023-07-29T00:55:56;11.10;;;3.85;;
71462;SDS011;59266;52.608;13.260;2023-07-29T00:58:23;15.45;;;4.05;;
71462;SDS011;59266;52.608;13.260;2023-07-29T01:00:50;12.00;;;4.10;;
71462;SDS011;59266;52.608;13.260;2023-07-29T01:03:17;9.77;;;4.00;;
71462;SDS011;59266;52.608;13.260;2023-07-29T01:05:55;9.90;;;3.88;;
71462;SDS011;59266;52.608;13.260;2023-07-29T01:08:45;7.80;;;3.42;;
71462;SDS011;59266;52.608;13.260;2023-07-29T01:11:33;12.60;;;4.40;;
71462;SDS011;59266;52.608;13.260;2023-07-29T01:17:08;11.27;;;4.45;;
71462;SDS011;59266;52.608;13.260;2023-07-29T01:19:42;12.32;;;3.95;;
71462;SDS011;59266;52.608;13.260;2023-07-29T01:22:23;12.50;;;4.28;;
71462;SDS011;59266;52.608;13.260;2023-07-29T01:24:50;10.27;;;3.83;;
71462;SDS011;59266;52.608;13.260;2023-07-29T01:27:17;13.20;;;4.38;;
71462;SDS011;59266;52.608;13.260;2023-07-29T01:29:43;10.88;;;4.38;;
71462;SDS011;59266;52.608;13.260;2023-07-29T01:32:11;10.98;;;4.28;;
71462;SDS011;59266;52.608;13.260;2023-07-29T01:34:53;10.40;;;3.97;;
71462;SDS011;59266;52.608;13.260;2023-07-29T01:37:26;10.43;;;4.30;;
71462;SDS011;59266;52.608;13.260;2023-07-29T01:39:59;9.20;;;3.78;;
71462;SDS011;59266;52.608;13.260;2023-07-29T01:42:26;11.65;;;4.25;;
71462;SDS011;59266;52.608;13.260;2023-07-29T01:44:55;9.88;;;3.67;;
71462;SDS011;59266;52.608;13.260;2023-07-29T01:47:22;10.43;;;4.63;;
71462;SDS011;59266;52.608;13.260;2023-07-29T01:49:49;12.10;;;4.47;;
71462;SDS011;59266;52.608;13.260;2023-07-29T01:52:16;10.82;;;3.40;;
71462;SDS011;59266;52.608;13.260;2023-07-29T01:54:42;9.25;;;4.00;;
71462;SDS011;59266;52.608;13.260;2023-07-29T01:57:09;11.05;;;4.15;;
71462;SDS011;59266;52.608;13.260;2023-07-29T01:59:36;22.67;;;4.63;;
71462;SDS011;59266;52.608;13.260;2023-07-29T02:02:03;11.80;;;4.22;;
71462;SDS011;59266;52.608;13.260;2023-07-29T02:04:30;16.23;;;4.72;;
71462;SDS011;59266;52.608;13.260;2023-07-29T02:06:57;9.30;;;3.90;;
71462;SDS011;59266;52.608;13.260;2023-07-29T02:09:23;9.40;;;4.05;;
71462;SDS011;59266;52.608;13.260;2023-07-29T02:11:51;13.68;;;4.60;;
71462;SDS011;59266;52.608;13.260;2023-07-29T02:14:18;12.35;;;4.20;;
71462;SDS011;59266;52.608;13.260;2023-07-29T02:16:45;10.20;;;4.20;;
71462;SDS011;59266;52.608;13.260;2023-07-29T02:19:11;14.85;;;5.00;;
71462;SDS011;59266;52.608;13.260;2023-07-29T02:21:38;19.55;;;5.25;;
71462;SDS011;59266;52.608;13.260;2023-07-29T02:24:05;15.65;;;5.43;;
71462;SDS011;59266;52.608;13.260;2023-07-29T02:26:31;11.02;;;4.68;;
71462;SDS011;59266;52.608;13.260;2023-07-29T02:28:58;15.27;;;5.25;;
71462;SDS011;59266;52.608;13.260;2023-07-29T02:31:25;12.63;;;4.70;;
71462;SDS011;59266;52.608;13.260;2023-07-29T02:33:52;14.40;;;4.75;;
71462;SDS011;59266;52.608;13.260;2023-07-29T02:36:18;16.42;;;5.05;;
71462;SDS011;59266;52.608;13.260;2023-07-29T02:38:45;12.10;;;4.30;;
71462;SDS011;59266;52.608;13.260;2023-07-29T02:41:11;11.27;;;4.72;;
71462;SDS011;59266;52.608;13.260;2023-07-29T02:43:39;12.75;;;4.68;;
71462;SDS011;59266;52.608;13.260;2023-07-29T02:46:07;13.68;;;5.03;;
71462;SDS011;59266;52.608;13.260;2023-07-29T02:48:34;9.73;;;4.65;;
71462;SDS011;59266;52.608;13.260;2023-07-29T02:51:01;14.75;;;4.35;;
71462;SDS011;59266;52.608;13.260;2023-07-29T02:53:28;10.38;;;4.50;;
71462;SDS011;59266;52.608;13.260;2023-07-29T02:55:54;13.15;;;5.07;;
71462;SDS011;59266;52.608;13.260;2023-07-29T02:58:21;9.35;;;4.25;;
71462;SDS011;59266;52.608;13.260;2023-07-29T03:00:50;8.43;;;3.90;;
71462;SDS011;59266;52.608;13.260;2023-07-29T03:03:18;14.40;;;4.75;;
71462;SDS011;59266;52.608;13.260;2023-07-29T03:05:46;11.95;;;4.35;;
71462;SDS011;59266;52.608;13.260;2023-07-29T03:08:12;14.30;;;4.38;;
71462;SDS011;59266;52.608;13.260;2023-07-29T03:10:39;9.75;;;4.50;;
71462;SDS011;59266;52.608;13.260;2023-07-29T03:13:08;11.07;;;4.60;;
71462;SDS011;59266;52.608;13.260;2023-07-29T03:15:34;11.60;;;4.43;;
71462;SDS011;59266;52.608;13.260;2023-07-29T03:18:01;13.43;;;5.32;;
71462;SDS011;59266;52.608;13.260;2023-07-29T03:20:28;14.32;;;4.93;;
71462;SDS011;59266;52.608;13.260;2023-07-29T03:22:55;15.68;;;4.78;;
71462;SDS011;59266;52.608;13.260;2023-07-29T03:25:21;11.98;;;5.18;;
71462;SDS011;59266;52.608;13.260;2023-07-29T03:27:50;19.33;;;5.40;;
71462;SDS011;59266;52.608;13.260;2023-07-29T03:30:20;15.68;;;4.40;;
71462;SDS011;59266;52.608;13.260;2023-07-29T03:32:51;14.98;;;5.53;;
71462;SDS011;59266;52.608;13.260;2023-07-29T03:35:18;12.05;;;5.15;;
71462;SDS011;59266;52.608;13.260;2023-07-29T03:37:44;14.25;;;4.90;;
71462;SDS011;59266;52.608;13.260;2023-07-29T03:40:14;16.63;;;5.25;;
71462;SDS011;59266;52.608;13.260;2023-07-29T03:42:41;12.25;;;5.20;;
71462;SDS011;59266;52.608;13.260;2023-07-29T03:45:07;13.15;;;5.07;;
71462;SDS011;59266;52.608;13.260;2023-07-29T03:47:34;16.42;;;5.22;;
71462;SDS011;59266;52.608;13.260;2023-07-29T03:50:02;19.67;;;5.55;;
71462;SDS011;59266;52.608;13.260;2023-07-29T03:52:28;12.50;;;5.43;;
71462;SDS011;59266;52.608;13.260;2023-07-29T03:54:55;11.60;;;4.80;;
71462;SDS011;59266;52.608;13.260;2023-07-29T03:57:24;12.07;;;5.30;;
71462;SDS011;59266;52.608;13.260;2023-07-29T03:59:51;24.13;;;6.45;;
71462;SDS011;59266;52.608;13.260;2023-07-29T04:02:20;15.13;;;5.38;;
71462;SDS011;59266;52.608;13.260;2023-07-29T04:04:47;11.07;;;5.30;;
71462;SDS011;59266;52.608;13.260;2023-07-29T04:07:14;12.23;;;5.03;;
71462;SDS011;59266;52.608;13.260;2023-07-29T04:09:41;21.00;;;6.70;;
71462;SDS011;59266;52.608;13.260;2023-07-29T04:12:09;10.63;;;4.75;;
71462;SDS011;59266;52.608;13.260;2023-07-29T04:14:36;17.02;;;5.85;;
71462;SDS011;59266;52.608;13.260;2023-07-29T04:17:03;12.50;;;5.32;;
71462;SDS011;59266;52.608;13.260;2023-07-29T04:19:30;14.68;;;5.50;;
71462;SDS011;59266;52.608;13.260;2023-07-29T04:21:57;10.15;;;5.20;;
71462;SDS011;59266;52.608;13.260;2023-07-29T04:24:23;13.27;;;5.63;;
71462;SDS011;59266;52.608;13.260;2023-07-29T04:26:50;12.85;;;5.05;;
71462;SDS011;59266;52.608;13.260;2023-07-29T04:29:16;19.27;;;5.88;;
71462;SDS011;59266;52.608;13.260;2023-07-29T04:31:44;12.80;;;5.35;;
71462;SDS011;59266;52.608;13.260;2023-07-29T04:34:10;15.07;;;5.88;;
71462;SDS011;59266;52.608;13.260;2023-07-29T04:36:37;12.65;;;5.72;;
71462;SDS011;59266;52.608;13.260;2023-07-29T04:39:04;14.55;;;6.35;;
71462;SDS011;59266;52.608;13.260;2023-07-29T04:41:31;16.05;;;5.93;;
71462;SDS011;59266;52.608;13.260;2023-07-29T04:43:58;14.07;;;5.93;;
71462;SDS011;59266;52.608;13.260;2023-07-29T04:46:25;12.77;;;6.05;;
71462;SDS011;59266;52.608;13.260;2023-07-29T04:48:51;14.38;;;5.95;;
71462;SDS011;59266;52.608;13.260;2023-07-29T04:51:18;10.85;;;5.63;;
71462;SDS011;59266;52.608;13.260;2023-07-29T04:53:45;11.68;;;5.47;;
71462;SDS011;59266;52.608;13.260;2023-07-29T04:56:11;14.70;;;6.18;;
71462;SDS011;59266;52.608;13.260;2023-07-29T04:58:40;10.60;;;5.50;;
71462;SDS011;59266;52.608;13.260;2023-07-29T05:01:07;14.75;;;5.93;;
71462;SDS011;59266;52.608;13.260;2023-07-29T05:03:34;14.50;;;5.70;;
71462;SDS011;59266;52.608;13.260;2023-07-29T05:06:01;15.95;;;5.43;;
71462;SDS011;59266;52.608;13.260;2023-07-29T05:08:28;11.32;;;4.97;;
71462;SDS011;59266;52.608;13.260;2023-07-29T05:10:55;10.05;;;5.03;;
71462;SDS011;59266;52.608;13.260;2023-07-29T05:13:23;12.52;;;4.88;;
71462;SDS011;59266;52.608;13.260;2023-07-29T05:15:50;8.02;;;3.90;;
71462;SDS011;59266;52.608;13.260;2023-07-29T05:18:17;9.93;;;4.65;;
71462;SDS011;59266;52.608;13.260;2023-07-29T05:20:43;11.80;;;5.25;;
71462;SDS011;59266;52.608;13.260;2023-07-29T05:23:12;10.65;;;4.65;;
71462;SDS011;59266;52.608;13.260;2023-07-29T05:25:39;13.68;;;5.50;;
71462;SDS011;59266;52.608;13.260;2023-07-29T05:28:06;13.55;;;4.63;;
71462;SDS011;59266;52.608;13.260;2023-07-29T05:30:35;12.45;;;5.03;;
71462;SDS011;59266;52.608;13.260;2023-07-29T05:33:03;11.23;;;5.28;;
71462;SDS011;59266;52.608;13.260;2023-07-29T05:35:36;11.07;;;5.13;;
71462;SDS011;59266;52.608;13.260;2023-07-29T05:38:03;11.90;;;6.72;;
71462;SDS011;59266;52.608;13.260;2023-07-29T05:40:31;14.65;;;6.60;;
71462;SDS011;59266;52.608;13.260;2023-07-29T05:42:58;9.88;;;5.75;;
71462;SDS011;59266;52.608;13.260;2023-07-29T05:45:25;10.32;;;6.00;;
71462;SDS011;59266;52.608;13.260;2023-07-29T05:47:51;11.07;;;6.50;;
71462;SDS011;59266;52.608;13.260;2023-07-29T05:50:21;12.20;;;5.13;;
71462;SDS011;59266;52.608;13.260;2023-07-29T05:52:47;11.27;;;5.55;;
71462;SDS011;59266;52.608;13.260;2023-07-29T05:55:14;13.10;;;5.90;;
71462;SDS011;59266;52.608;13.260;2023-07-29T05:57:41;11.95;;;7.22;;
71462;SDS011;59266;52.608;13.260;2023-07-29T06:00:09;12.40;;;6.50;;
71462;SDS011;59266;52.608;13.260;2023-07-29T06:02:39;11.73;;;6.28;;
71462;SDS011;59266;52.608;13.260;2023-07-29T06:05:07;10.98;;;5.78;;
71462;SDS011;59266;52.608;13.260;2023-07-29T06:07:34;11.52;;;5.97;;
71462;SDS011;59266;52.608;13.260;2023-07-29T06:10:00;8.63;;;5.30;;
71462;SDS011;59266;52.608;13.260;2023-07-29T06:12:27;8.02;;;4.50;;
71462;SDS011;59266;52.608;13.260;2023-07-29T06:14:54;10.30;;;4.15;;
71462;SDS011;59266;52.608;13.260;2023-07-29T06:17:20;8.25;;;4.88;;
71462;SDS011;59266;52.608;13.260;2023-07-29T06:19:47;7.53;;;4.28;;
71462;SDS011;59266;52.608;13.260;2023-07-29T06:22:14;11.15;;;5.13;;
71462;SDS011;59266;52.608;13.260;2023-07-29T06:24:43;8.00;;;4.30;;
71462;SDS011;59266;52.608;13.260;2023-07-29T06:27:12;7.68;;;4.53;;
71462;SDS011;59266;52.608;13.260;2023-07-29T06:29:38;7.25;;;4.00;;
71462;SDS011;59266;52.608;13.260;2023-07-29T06:32:05;8.10;;;4.07;;
71462;SDS011;59266;52.608;13.260;2023-07-29T06:34:32;8.55;;;4.28;;
71462;SDS011;59266;52.608;13.260;2023-07-29T06:36:58;6.97;;;4.03;;
71462;SDS011;59266;52.608;13.260;2023-07-29T06:39:25;7.32;;;3.65;;
71462;SDS011;59266;52.608;13.260;2023-07-29T06:41:51;8.23;;;4.25;;
71462;SDS011;59266;52.608;13.260;2023-07-29T06:44:18;6.00;;;3.40;;
71462;SDS011;59266;52.608;13.260;2023-07-29T06:46:45;7.68;;;4.15;;
71462;SDS011;59266;52.608;13.260;2023-07-29T06:49:12;7.25;;;3.80;;
71462;SDS011;59266;52.608;13.260;2023-07-29T06:51:39;7.00;;;3.83;;
71462;SDS011;59266;52.608;13.260;2023-07-29T06:54:06;11.15;;;3.83;;
71462;SDS011;59266;52.608;13.260;2023-07-29T06:56:32;6.43;;;3.80;;
71462;SDS011;59266;52.608;13.260;2023-07-29T06:58:59;6.90;;;4.05;;
71462;SDS011;59266;52.608;13.260;2023-07-29T07:01:27;7.10;;;4.07;;
71462;SDS011;59266;52.608;13.260;2023-07-29T07:03:54;7.47;;;3.67;;
71462;SDS011;59266;52.608;13.260;2023-07-29T07:06:21;8.38;;;4.10;;
71462;SDS011;59266;52.608;13.260;2023-07-29T07:08:51;6.88;;;3.50;;
71462;SDS011;59266;52.608;13.260;2023-07-29T07:11:18;8.43;;;4.20;;
71462;SDS011;59266;52.608;13.260;2023-07-29T07:13:47;7.55;;;3.65;;
71462;SDS011;59266;52.608;13.260;2023-07-29T07:16:14;5.65;;;3.22;;
71462;SDS011;59266;52.608;13.260;2023-07-29T07:18:41;6.70;;;3.83;;
71462;SDS011;59266;52.608;13.260;2023-07-29T07:21:07;8.90;;;4.15;;
71462;SDS011;59266;52.608;13.260;2023-07-29T07:23:34;7.38;;;4.40;;
71462;SDS011;59266;52.608;13.260;2023-07-29T07:26:01;7.10;;;3.92;;
71462;SDS011;59266;52.608;13.260;2023-07-29T07:28:29;8.23;;;3.90;;
71462;SDS011;59266;52.608;13.260;2023-07-29T07:30:55;6.88;;;3.80;;
71462;SDS011;59266;52.608;13.260;2023-07-29T07:33:29;6.80;;;3.55;;
71462;SDS011;59266;52.608;13.260;2023-07-29T07:35:55;8.60;;;3.90;;
71462;SDS011;59266;52.608;13.260;2023-07-29T07:38:22;7.35;;;3.60;;
71462;SDS011;59266;52.608;13.260;2023-07-29T07:40:53;7.20;;;3.13;;
71462;SDS011;59266;52.608;13.260;2023-07-29T07:43:23;7.32;;;3.17;;
71462;SDS011;59266;52.608;13.260;2023-07-29T07:45:57;8.77;;;3.65;;
71462;SDS011;59266;52.608;13.260;2023-07-29T07:48:30;8.05;;;3.22;;
71462;SDS011;59266;52.608;13.260;2023-07-29T07:50:58;5.93;;;3.13;;
71462;SDS011;59266;52.608;13.260;2023-07-29T07:53:25;6.47;;;3.28;;
71462;SDS011;59266;52.608;13.260;2023-07-29T07:55:52;9.35;;;2.92;;
71462;SDS011;59266;52.608;13.260;2023-07-29T07:58:24;8.25;;;2.88;;
71462;SDS011;59266;52.608;13.260;2023-07-29T08:00:50;6.00;;;2.90;;
71462;SDS011;59266;52.608;13.260;2023-07-29T08:03:17;5.50;;;2.67;;
71462;SDS011;59266;52.608;13.260;2023-07-29T08:05:47;7.53;;;3.08;;
71462;SDS011;59266;52.608;13.260;2023-07-29T08:08:14;6.60;;;2.72;;
71462;SDS011;59266;52.608;13.260;2023-07-29T08:10:40;5.85;;;3.17;;
71462;SDS011;59266;52.608;13.260;2023-07-29T08:13:07;6.60;;;3.00;;
71462;SDS011;59266;52.608;13.260;2023-07-29T08:15:33;6.45;;;2.83;;
71462;SDS011;59266;52.608;13.260;2023-07-29T08:18:01;6.88;;;2.90;;
71462;SDS011;59266;52.608;13.260;2023-07-29T08:20:28;5.25;;;2.90;;
71462;SDS011;59266;52.608;13.260;2023-07-29T08:22:55;6.15;;;2.92;;
71462;SDS011;59266;52.608;13.260;2023-07-29T08:25:22;6.60;;;2.90;;
71462;SDS011;59266;52.608;13.260;2023-07-29T08:27:51;5.60;;;2.83;;
71462;SDS011;59266;52.608;13.260;2023-07-29T08:30:18;5.68;;;3.20;;
71462;SDS011;59266;52.608;13.260;2023-07-29T08:32:45;6.00;;;2.70;;
71462;SDS011;59266;52.608;13.260;2023-07-29T08:35:12;5.60;;;2.60;;
71462;SDS011;59266;52.608;13.260;2023-07-29T08:37:43;5.35;;;2.80;;
71462;SDS011;59266;52.608;13.260;2023-07-29T08:40:09;4.97;;;2.63;;
71462;SDS011;59266;52.608;13.260;2023-07-29T08:42:36;5.63;;;2.65;;
71462;SDS011;59266;52.608;13.260;2023-07-29T08:45:07;5.88;;;2.47;;
71462;SDS011;59266;52.608;13.260;2023-07-29T08:50:01;6.78;;;2.30;;
71462;SDS011;59266;52.608;13.260;2023-07-29T08:52:29;6.07;;;2.60;;
71462;SDS011;59266;52.608;13.260;2023-07-29T08:55:00;4.95;;;2.30;;
71462;SDS011;59266;52.608;13.260;2023-07-29T08:57:27;5.25;;;2.40;;
71462;SDS011;59266;52.608;13.260;2023-07-29T08:59:54;6.28;;;2.30;;
71462;SDS011;59266;52.608;13.260;2023-07-29T09:02:25;5.85;;;2.58;;
71462;SDS011;59266;52.608;13.260;2023-07-29T09:04:52;5.05;;;2.40;;
71462;SDS011;59266;52.608;13.260;2023-07-29T09:07:18;5.38;;;2.30;;
71462;SDS011;59266;52.608;13.260;2023-07-29T09:09:46;5.47;;;2.45;;
71462;SDS011;59266;52.608;13.260;2023-07-29T09:12:13;5.68;;;2.40;;
71462;SDS011;59266;52.608;13.260;2023-07-29T09:14:40;6.03;;;2.72;;
71462;SDS011;59266;52.608;13.260;2023-07-29T09:17:08;7.05;;;2.30;;
71462;SDS011;59266;52.608;13.260;2023-07-29T09:19:36;4.97;;;2.22;;
71462;SDS011;59266;52.608;13.260;2023-07-29T09:22:03;5.20;;;2.55;;
71462;SDS011;59266;52.608;13.260;2023-07-29T09:24:30;8.65;;;2.50;;
71462;SDS011;59266;52.608;13.260;2023-07-29T09:26:58;7.20;;;2.35;;
71462;SDS011;59266;52.608;13.260;2023-07-29T09:29:27;5.00;;;2.13;;
71462;SDS011;59266;52.608;13.260;2023-07-29T09:31:54;5.63;;;2.60;;
71462;SDS011;59266;52.608;13.260;2023-07-29T09:34:42;5.88;;;2.50;;
71462;SDS011;59266;52.608;13.260;2023-07-29T09:37:09;4.97;;;2.42;;
71462;SDS011;59266;52.608;13.260;2023-07-29T09:39:37;5.13;;;2.40;;
71462;SDS011;59266;52.608;13.260;2023-07-29T09:42:03;5.57;;;2.72;;
71462;SDS011;59266;52.608;13.260;2023-07-29T09:44:35;5.45;;;2.60;;
71462;SDS011;59266;52.608;13.260;2023-07-29T09:47:02;5.10;;;2.35;;
71462;SDS011;59266;52.608;13.260;2023-07-29T09:49:29;6.78;;;2.40;;
71462;SDS011;59266;52.608;13.260;2023-07-29T09:52:01;5.35;;;2.50;;
71462;SDS011;59266;52.608;13.260;2023-07-29T09:54:30;4.72;;;2.22;;
71462;SDS011;59266;52.608;13.260;2023-07-29T09:56:58;4.90;;;2.30;;
71462;SDS011;59266;52.608;13.260;2023-07-29T09:59:25;5.75;;;2.42;;
71462;SDS011;59266;52.608;13.260;2023-07-29T10:01:52;4.88;;;2.10;;
71462;SDS011;59266;52.608;13.260;2023-07-29T10:04:19;5.32;;;2.22;;
71462;SDS011;59266;52.608;13.260;2023-07-29T10:06:46;5.43;;;2.50;;
71462;SDS011;59266;52.608;13.260;2023-07-29T10:09:13;7.00;;;2.40;;
71462;SDS011;59266;52.608;13.260;2023-07-29T10:11:40;5.30;;;2.55;;
71462;SDS011;59266;52.608;13.260;2023-07-29T10:14:09;4.63;;;2.35;;
71462;SDS011;59266;52.608;13.260;2023-07-29T10:16:36;5.88;;;2.33;;
71462;SDS011;59266;52.608;13.260;2023-07-29T10:19:04;5.68;;;2.35;;
71462;SDS011;59266;52.608;13.260;2023-07-29T10:21:31;4.65;;;2.25;;
71462;SDS011;59266;52.608;13.260;2023-07-29T10:23:59;6.07;;;2.75;;
71462;SDS011;59266;52.608;13.260;2023-07-29T10:26:29;5.40;;;2.13;;
71462;SDS011;59266;52.608;13.260;2023-07-29T10:29:01;4.75;;;2.10;;
71462;SDS011;59266;52.608;13.260;2023-07-29T10:31:33;4.78;;;2.05;;
71462;SDS011;59266;52.608;13.260;2023-07-29T10:34:00;5.20;;;2.40;;
71462;SDS011;59266;52.608;13.260;2023-07-29T10:36:27;7.47;;;2.53;;
71462;SDS011;59266;52.608;13.260;2023-07-29T10:38:54;7.13;;;2.80;;
71462;SDS011;59266;52.608;13.260;2023-07-29T10:41:21;6.07;;;2.67;;
71462;SDS011;59266;52.608;13.260;2023-07-29T10:43:47;5.10;;;2.40;;
71462;SDS011;59266;52.608;13.260;2023-07-29T10:46:15;7.20;;;2.90;;
71462;SDS011;59266;52.608;13.260;2023-07-29T10:48:55;7.63;;;2.55;;
71462;SDS011;59266;52.608;13.260;2023-07-29T10:53:59;5.97;;;2.20;;
71462;SDS011;59266;52.608;13.260;2023-07-29T10:56:28;7.00;;;2.17;;
71462;SDS011;59266;52.608;13.260;2023-07-29T10:58:57;5.65;;;1.70;;
71462;SDS011;59266;52.608;13.260;2023-07-29T11:01:31;5.93;;;1.60;;
71462;SDS011;59266;52.608;13.260;2023-07-29T11:04:05;6.82;;;1.73;;
71462;SDS011;59266;52.608;13.260;2023-07-29T11:12:38;8.35;;;1.92;;
71462;SDS011;59266;52.608;13.260;2023-07-29T11:17:39;8.07;;;2.10;;
71462;SDS011;59266;52.608;13.260;2023-07-29T11:20:07;11.50;;;2.80;;
71462;SDS011;59266;52.608;13.260;2023-07-29T11:22:35;12.50;;;2.42;;
71462;SDS011;59266;52.608;13.260;2023-07-29T11:25:02;9.98;;;2.28;;
71462;SDS011;59266;52.608;13.260;2023-07-29T11:27:29;7.55;;;1.90;;
71462;SDS011;59266;52.608;13.260;2023-07-29T11:29:58;7.07;;;1.90;;
71462;SDS011;59266;52.608;13.260;2023-07-29T11:32:26;5.75;;;1.67;;
71462;SDS011;59266;52.608;13.260;2023-07-29T11:34:54;5.82;;;1.90;;
71462;SDS011;59266;52.608;13.260;2023-07-29T11:37:21;7.35;;;1.95;;
71462;SDS011;59266;52.608;13.260;2023-07-29T11:39:50;4.30;;;1.60;;
71462;SDS011;59266;52.608;13.260;2023-07-29T11:42:17;9.25;;;2.20;;
71462;SDS011;59266;52.608;13.260;2023-07-29T11:44:46;7.22;;;1.83;;
71462;SDS011;59266;52.608;13.260;2023-07-29T11:47:17;10.55;;;2.30;;
71462;SDS011;59266;52.608;13.260;2023-07-29T11:49:44;6.80;;;2.50;;
71462;SDS011;59266;52.608;13.260;2023-07-29T11:52:10;7.25;;;1.75;;
71462;SDS011;59266;52.608;13.260;2023-07-29T11:54:38;5.93;;;2.10;;
71462;SDS011;59266;52.608;13.260;2023-07-29T11:57:06;5.82;;;1.80;;
71462;SDS011;59266;52.608;13.260;2023-07-29T11:59:34;7.60;;;2.10;;
71462;SDS011;59266;52.608;13.260;2023-07-29T12:02:08;6.80;;;2.03;;
71462;SDS011;59266;52.608;13.260;2023-07-29T12:04:38;5.97;;;2.00;;
71462;SDS011;59266;52.608;13.260;2023-07-29T12:07:09;8.48;;;2.25;;
71462;SDS011;59266;52.608;13.260;2023-07-29T12:09:36;8.27;;;2.35;;
71462;SDS011;59266;52.608;13.260;2023-07-29T12:12:04;4.80;;;2.05;;
71462;SDS011;59266;52.608;13.260;2023-07-29T12:14:31;6.13;;;2.20;;
71462;SDS011;59266;52.608;13.260;2023-07-29T12:17:02;5.72;;;2.20;;
71462;SDS011;59266;52.608;13.260;2023-07-29T12:19:34;6.70;;;2.33;;
71462;SDS011;59266;52.608;13.260;2023-07-29T12:22:03;8.05;;;2.55;;
71462;SDS011;59266;52.608;13.260;2023-07-29T12:24:31;6.93;;;2.28;;
71462;SDS011;59266;52.608;13.260;2023-07-29T12:26:58;7.10;;;2.50;;
71462;SDS011;59266;52.608;13.260;2023-07-29T12:29:26;7.28;;;2.30;;
71462;SDS011;59266;52.608;13.260;2023-07-29T12:32:00;7.57;;;2.90;;
71462;SDS011;59266;52.608;13.260;2023-07-29T12:34:28;6.03;;;2.85;;
71462;SDS011;59266;52.608;13.260;2023-07-29T12:36:56;7.90;;;3.85;;
71462;SDS011;59266;52.608;13.260;2023-07-29T12:39:25;10.10;;;3.08;;
71462;SDS011;59266;52.608;13.260;2023-07-29T12:41:54;8.30;;;3.28;;
71462;SDS011;59266;52.608;13.260;2023-07-29T12:44:22;7.00;;;3.00;;
71462;SDS011;59266;52.608;13.260;2023-07-29T12:46:50;6.28;;;2.72;;
71462;SDS011;59266;52.608;13.260;2023-07-29T12:49:17;8.35;;;2.92;;
71462;SDS011;59266;52.608;13.260;2023-07-29T12:51:45;6.82;;;3.00;;
71462;SDS011;59266;52.608;13.260;2023-07-29T12:54:11;6.40;;;3.03;;
71462;SDS011;59266;52.608;13.260;2023-07-29T12:56:38;7.40;;;3.00;;
71462;SDS011;59266;52.608;13.260;2023-07-29T12:59:05;6.05;;;2.55;;
71462;SDS011;59266;52.608;13.260;2023-07-29T13:01:32;8.15;;;2.75;;
71462;SDS011;59266;52.608;13.260;2023-07-29T13:03:58;6.63;;;3.22;;
71462;SDS011;59266;52.608;13.260;2023-07-29T13:06:25;6.13;;;2.60;;
71462;SDS011;59266;52.608;13.260;2023-07-29T13:08:52;5.60;;;2.60;;
71462;SDS011;59266;52.608;13.260;2023-07-29T13:11:18;6.38;;;2.80;;
71462;SDS011;59266;52.608;13.260;2023-07-29T13:13:45;5.13;;;2.38;;
71462;SDS011;59266;52.608;13.260;2023-07-29T13:16:12;6.38;;;2.50;;
71462;SDS011;59266;52.608;13.260;2023-07-29T13:18:39;7.03;;;2.10;;
71462;SDS011;59266;52.608;13.260;2023-07-29T13:21:07;6.90;;;2.10;;
71462;SDS011;59266;52.608;13.260;2023-07-29T13:23:33;4.32;;;1.92;;
71462;SDS011;59266;52.608;13.260;2023-07-29T13:26:10;7.85;;;2.03;;
71462;SDS011;59266;52.608;13.260;2023-07-29T13:28:38;5.22;;;1.90;;
71462;SDS011;59266;52.608;13.260;2023-07-29T13:31:20;4.60;;;1.80;;
71462;SDS011;59266;52.608;13.260;2023-07-29T13:33:47;4.35;;;1.70;;
71462;SDS011;59266;52.608;13.260;2023-07-29T13:36:14;5.07;;;1.95;;
71462;SDS011;59266;52.608;13.260;2023-07-29T13:38:41;8.32;;;1.70;;
71462;SDS011;59266;52.608;13.260;2023-07-29T13:41:13;3.63;;;1.45;;
71462;SDS011;59266;52.608;13.260;2023-07-29T13:43:40;2.72;;;1.20;;
71462;SDS011;59266;52.608;13.260;2023-07-29T13:46:06;3.83;;;1.52;;
71462;SDS011;59266;52.608;13.260;2023-07-29T13:48:33;1.85;;;1.10;;
71462;SDS011;59266;52.608;13.260;2023-07-29T13:51:02;4.68;;;1.30;;
71462;SDS011;59266;52.608;13.260;2023-07-29T13:53:29;5.05;;;1.40;;
71462;SDS011;59266;52.608;13.260;2023-07-29T13:55:56;2.80;;;1.20;;
71462;SDS011;59266;52.608;13.260;2023-07-29T13:58:23;2.83;;;1.20;;
71462;SDS011;59266;52.608;13.260;2023-07-29T14:00:52;4.00;;;1.48;;
71462;SDS011;59266;52.608;13.260;2023-07-29T14:03:22;2.97;;;1.30;;
71462;SDS011;59266;52.608;13.260;2023-07-29T14:05:49;3.00;;;1.13;;
71462;SDS011;59266;52.608;13.260;2023-07-29T14:08:15;4.45;;;1.27;;
71462;SDS011;59266;52.608;13.260;2023-07-29T14:10:42;3.28;;;1.40;;
71462;SDS011;59266;52.608;13.260;2023-07-29T14:13:08;3.45;;;1.15;;
71462;SDS011;59266;52.608;13.260;2023-07-29T14:15:35;2.70;;;1.25;;
71462;SDS011;59266;52.608;13.260;2023-07-29T14:18:04;3.63;;;1.20;;
71462;SDS011;59266;52.608;13.260;2023-07-29T14:20:34;7.40;;;1.30;;
71462;SDS011;59266;52.608;13.260;2023-07-29T14:23:00;3.53;;;1.20;;
71462;SDS011;59266;52.608;13.260;2023-07-29T14:25:27;2.53;;;1.00;;
71462;SDS011;59266;52.608;13.260;2023-07-29T14:27:54;3.45;;;1.02;;
71462;SDS011;59266;52.608;13.260;2023-07-29T14:30:21;2.60;;;1.15;;
71462;SDS011;59266;52.608;13.260;2023-07-29T14:32:48;2.17;;;1.13;;
71462;SDS011;59266;52.608;13.260;2023-07-29T14:35:17;4.28;;;1.30;;
71462;SDS011;59266;52.608;13.260;2023-07-29T14:37:45;4.07;;;1.38;;
71462;SDS011;59266;52.608;13.260;2023-07-29T14:40:11;2.17;;;1.10;;
71462;SDS011;59266;52.608;13.260;2023-07-29T14:42:41;2.83;;;1.17;;
71462;SDS011;59266;52.608;13.260;2023-07-29T14:45:10;2.95;;;1.30;;
71462;SDS011;59266;52.608;13.260;2023-07-29T14:47:36;3.33;;;1.10;;
71462;SDS011;59266;52.608;13.260;2023-07-29T14:50:05;9.90;;;1.90;;
71462;SDS011;59266;52.608;13.260;2023-07-29T14:52:32;3.33;;;1.40;;